Time;durP1;ratioP1;P1;durP2;ratioP2;P2;SDS_P1;SDS_P2;PMS_P1;PMS_P2;Temp;Humidity;BMP_temperature;BMP_pressure;BME280_temperature;BME280_humidity;BME280_pressure;Samples;Min_cycle;Max_cycle;Signal;HPM_P1;HPM_P2
2023/08/09 00:02:02;;;;;;;10.40;7.97;;;13.60;99.90;;;;;;4996263;28;20054;-71
2023/08/09 00:04:27;;;;;;;11.82;8.65;;;13.60;99.90;;;;;;4996138;28;20105;-72
2023/08/09 00:06:53;;;;;;;10.50;9.02;;;13.60;99.90;;;;;;4996181;28;20026;-72
2023/08/09 00:09:20;;;;;;;12.55;9.77;;;13.60;99.90;;;;;;4996069;28;20029;-72
2023/08/09 00:11:47;;;;;;;10.50;8.73;;;13.60;99.90;;;;;;4995867;28;20465;-72
2023/08/09 00:14:13;;;;;;;12.73;9.60;;;13.60;99.90;;;;;;4996464;28;20031;-71
2023/08/09 00:16:38;;;;;;;10.48;8.65;;;13.50;99.90;;;;;;4996372;28;20089;-72
2023/08/09 00:19:04;;;;;;;10.73;8.18;;;13.50;99.90;;;;;;4996096;28;20026;-72
2023/08/09 00:21:31;;;;;;;9.52;8.00;;;13.50;99.90;;;;;;4996024;28;20155;-72
2023/08/09 00:23:57;;;;;;;12.18;8.57;;;13.50;99.90;;;;;;4995986;28;20030;-72
2023/08/09 00:26:23;;;;;;;11.57;8.05;;;13.50;99.90;;;;;;4996201;28;20173;-72
2023/08/09 00:28:48;;;;;;;10.70;7.13;;;13.50;99.90;;;;;;4996094;28;20428;-72
2023/08/09 00:31:14;;;;;;;8.15;6.45;;;13.50;99.90;;;;;;4995616;28;20117;-73
2023/08/09 00:33:39;;;;;;;8.52;6.55;;;13.50;99.90;;;;;;4995766;28;20388;-72
2023/08/09 00:36:05;;;;;;;7.80;5.93;;;13.50;99.90;;;;;;4996068;28;20116;-72
2023/08/09 00:38:31;;;;;;;7.65;5.40;;;13.40;99.90;;;;;;4995502;28;20031;-72
2023/08/09 00:40:56;;;;;;;8.77;5.80;;;13.40;99.90;;;;;;4995494;28;20027;-72
2023/08/09 00:43:22;;;;;;;7.07;5.18;;;13.40;99.90;;;;;;4995490;28;20031;-72
2023/08/09 00:45:48;;;;;;;8.60;5.63;;;13.30;99.90;;;;;;4995926;28;20483;-72
2023/08/09 00:48:14;;;;;;;7.93;5.50;;;13.30;99.90;;;;;;4995841;28;20030;-72
2023/08/09 00:50:40;;;;;;;7.82;5.00;;;13.30;99.90;;;;;;4995214;28;20042;-71
2023/08/09 00:53:06;;;;;;;7.40;5.45;;;13.40;99.90;;;;;;4994603;28;20499;-72
2023/08/09 00:55:33;;;;;;;6.38;5.32;;;13.40;99.90;;;;;;4995563;28;20106;-73
2023/08/09 00:57:58;;;;;;;7.20;5.18;;;13.40;99.90;;;;;;4994575;28;20038;-72
2023/08/09 01:00:24;;;;;;;9.25;5.15;;;13.40;99.90;;;;;;4995299;28;20088;-72
2023/08/09 01:02:50;;;;;;;7.93;5.18;;;13.40;99.90;;;;;;4994768;28;20087;-72
2023/08/09 01:05:16;;;;;;;7.88;5.22;;;13.40;99.90;;;;;;4994951;28;20118;-72
2023/08/09 01:08:14;;;;;;;7.95;5.55;;;13.40;99.90;;;;;;4995454;28;20033;-72
2023/08/09 01:10:48;;;;;;;7.65;4.88;;;13.40;99.90;;;;;;4994262;28;20030;-71
2023/08/09 01:13:19;;;;;;;6.32;4.80;;;13.40;99.90;;;;;;4994802;28;20033;-71
2023/08/09 01:15:45;;;;;;;7.47;5.05;;;13.40;99.90;;;;;;4995367;28;20018;-71
2023/08/09 01:18:12;;;;;;;8.85;5.38;;;13.40;99.90;;;;;;4995037;28;20026;-71
2023/08/09 01:20:38;;;;;;;8.30;5.18;;;13.40;99.90;;;;;;4994923;28;20026;-71
2023/08/09 01:23:13;;;;;;;9.50;5.35;;;13.50;99.90;;;;;;4994762;28;20093;-71
2023/08/09 01:25:38;;;;;;;7.25;5.00;;;13.50;99.90;;;;;;4995239;28;20112;-72
2023/08/09 01:28:05;;;;;;;6.30;5.15;;;13.40;99.90;;;;;;4994522;28;20062;-72
2023/08/09 01:30:31;;;;;;;6.35;5.25;;;13.50;99.90;;;;;;4994439;28;20030;-74
2023/08/09 01:32:59;;;;;;;6.03;4.90;;;13.40;99.90;;;;;;4994343;28;20093;-71
2023/08/09 01:35:26;;;;;;;7.82;5.47;;;13.40;99.90;;;;;;4994807;28;20037;-71
2023/08/09 01:40:39;;;;;;;6.30;4.95;;;13.40;99.90;;;;;;5112014;27;20380;-70
2023/08/09 01:43:05;;;;;;;7.22;5.15;;;13.40;99.90;;;;;;5111690;28;20042;-70
2023/08/09 01:45:31;;;;;;;7.75;5.50;;;13.40;99.90;;;;;;5111909;28;20073;-70
2023/08/09 01:47:57;;;;;;;8.23;6.05;;;13.30;99.90;;;;;;5111052;28;20028;-70
2023/08/09 01:50:26;;;;;;;9.38;6.63;;;13.30;99.90;;;;;;5111336;28;20031;-70
2023/08/09 01:52:56;;;;;;;10.60;7.32;;;13.30;99.90;;;;;;5111689;28;20035;-70
2023/08/09 01:55:25;;;;;;;9.93;7.63;;;13.30;99.90;;;;;;5111887;28;20020;-70
2023/08/09 01:57:51;;;;;;;11.23;8.00;;;13.30;99.90;;;;;;5111285;28;20028;-70
2023/08/09 02:00:19;;;;;;;11.15;8.02;;;13.30;99.90;;;;;;5111594;28;20070;-70
2023/08/09 02:02:47;;;;;;;11.95;7.57;;;13.30;99.90;;;;;;5111547;28;20027;-71
2023/08/09 02:05:13;;;;;;;11.55;7.88;;;13.30;99.90;;;;;;5111550;28;20020;-70
2023/08/09 02:07:39;;;;;;;10.13;7.38;;;13.30;99.90;;;;;;5111138;28;20027;-70
2023/08/09 02:10:06;;;;;;;15.52;7.45;;;13.20;99.90;;;;;;5111582;28;20027;-70
2023/08/09 02:12:31;;;;;;;8.63;6.40;;;13.10;99.90;;;;;;5111358;28;20526;-70
2023/08/09 02:14:57;;;;;;;9.88;6.70;;;12.90;99.90;;;;;;5111588;28;20023;-70
2023/08/09 02:17:23;;;;;;;9.98;7.03;;;12.80;99.90;;;;;;5110459;28;20028;-70
2023/08/09 02:19:48;;;;;;;8.77;6.35;;;12.80;99.90;;;;;;5110937;28;20031;-70
2023/08/09 02:22:17;;;;;;;10.52;7.10;;;12.80;99.90;;;;;;5111114;28;20388;-70
2023/08/09 02:24:43;;;;;;;11.13;7.88;;;12.70;99.90;;;;;;5111359;28;20024;-70
2023/08/09 02:27:09;;;;;;;14.45;7.57;;;12.70;99.90;;;;;;5110523;28;20020;-70
2023/08/09 02:29:36;;;;;;;12.68;7.75;;;12.70;99.90;;;;;;5111296;28;20047;-70
2023/08/09 02:32:02;;;;;;;10.02;7.05;;;12.60;99.90;;;;;;5110774;28;20056;-70
2023/08/09 02:34:28;;;;;;;7.78;5.90;;;12.60;99.90;;;;;;5111012;28;20023;-70
2023/08/09 02:36:54;;;;;;;9.10;6.30;;;12.50;99.90;;;;;;5110934;28;20047;-70
2023/08/09 02:39:20;;;;;;;11.38;7.82;;;12.40;99.90;;;;;;5110303;28;20052;-70
2023/08/09 02:41:46;;;;;;;14.55;7.75;;;12.40;99.90;;;;;;5109830;28;20135;-70
2023/08/09 02:44:12;;;;;;;10.57;7.22;;;12.40;99.90;;;;;;5111010;28;20031;-70
2023/08/09 02:46:38;;;;;;;12.10;7.93;;;12.30;99.90;;;;;;5110616;28;20161;-70
2023/08/09 02:49:03;;;;;;;9.27;7.75;;;12.30;99.90;;;;;;5110054;28;20032;-70
2023/08/09 02:51:29;;;;;;;13.15;7.10;;;12.20;99.90;;;;;;5099626;28;20039;-69
2023/08/09 02:53:58;;;;;;;11.55;7.78;;;12.20;99.90;;;;;;5096742;28;20469;-69
2023/08/09 02:56:24;;;;;;;11.10;7.88;;;12.10;99.90;;;;;;5096983;28;20093;-69
2023/08/09 02:58:49;;;;;;;15.65;8.82;;;12.10;99.90;;;;;;5095820;28;20020;-69
2023/08/09 03:01:15;;;;;;;15.90;9.55;;;12.20;99.90;;;;;;5096464;28;20035;-69
2023/08/09 03:03:40;;;;;;;17.33;9.73;;;12.20;99.90;;;;;;5096481;28;20024;-69
2023/08/09 03:06:07;;;;;;;15.48;9.23;;;12.20;99.90;;;;;;5095943;28;20024;-69
2023/08/09 03:08:32;;;;;;;15.15;9.60;;;12.10;99.90;;;;;;5096819;28;20031;-70
2023/08/09 03:10:58;;;;;;;17.73;10.73;;;12.10;99.90;;;;;;5096968;28;20028;-70
2023/08/09 03:13:23;;;;;;;17.80;11.25;;;12.10;99.90;;;;;;5096165;28;20028;-75
2023/08/09 03:15:49;;;;;;;21.00;11.90;;;12.20;99.90;;;;;;5096574;28;20354;-69
2023/08/09 03:18:15;;;;;;;21.17;12.27;;;12.30;99.90;;;;;;5096676;28;20136;-70
2023/08/09 03:20:41;;;;;;;21.90;13.30;;;12.30;99.90;;;;;;5096229;28;20027;-69
2023/08/09 03:23:09;;;;;;;22.92;13.73;;;12.40;99.90;;;;;;5095786;28;20077;-70
2023/08/09 03:25:36;;;;;;;24.00;14.00;;;12.50;99.90;;;;;;5095765;28;20031;-69
2023/08/09 03:28:02;;;;;;;25.35;14.73;;;12.50;99.90;;;;;;5096177;28;20016;-70
2023/08/09 03:30:28;;;;;;;27.55;15.15;;;12.60;99.90;;;;;;5096152;28;20397;-69
2023/08/09 03:32:54;;;;;;;26.90;15.23;;;12.70;99.90;;;;;;5095558;28;20032;-69
2023/08/09 03:35:19;;;;;;;23.70;14.48;;;12.80;99.90;;;;;;5096338;28;20115;-69
2023/08/09 03:37:45;;;;;;;29.35;15.82;;;12.90;99.90;;;;;;5096152;28;20085;-70
2023/08/09 03:40:12;;;;;;;26.60;13.68;;;12.90;99.90;;;;;;5095216;28;20079;-69
2023/08/09 03:42:40;;;;;;;28.70;15.45;;;12.90;99.90;;;;;;5095837;28;20017;-70
2023/08/09 03:45:06;;;;;;;26.55;16.08;;;13.00;99.90;;;;;;5096215;28;20058;-70
2023/08/09 03:47:32;;;;;;;30.88;18.15;;;13.00;99.90;;;;;;5095484;28;20084;-69
2023/08/09 03:49:58;;;;;;;28.25;17.77;;;13.00;99.90;;;;;;5095420;28;20028;-70
2023/08/09 03:52:24;;;;;;;32.63;18.27;;;13.00;99.90;;;;;;5095351;28;20054;-69
2023/08/09 03:54:52;;;;;;;31.75;17.30;;;13.10;99.90;;;;;;5096128;28;20540;-70
2023/08/09 03:57:19;;;;;;;32.17;16.33;;;13.00;99.90;;;;;;5095145;28;20024;-71
2023/08/09 03:59:44;;;;;;;29.75;17.50;;;13.00;99.90;;;;;;5095457;28;20031;-70
2023/08/09 04:02:11;;;;;;;34.20;17.95;;;13.00;99.90;;;;;;5094671;28;20032;-70
2023/08/09 04:04:37;;;;;;;32.20;17.02;;;13.00;99.90;;;;;;5094970;28;20048;-70
2023/08/09 04:07:02;;;;;;;30.63;17.88;;;13.00;99.90;;;;;;5095481;28;20504;-70
2023/08/09 04:09:28;;;;;;;31.55;18.05;;;12.90;99.90;;;;;;5095309;28;20042;-70
2023/08/09 04:11:53;;;;;;;29.73;17.52;;;12.90;99.90;;;;;;5095070;28;20031;-70
2023/08/09 04:14:20;;;;;;;26.50;16.58;;;12.90;99.90;;;;;;5094765;28;20020;-70
2023/08/09 04:16:46;;;;;;;30.75;17.85;;;12.90;99.90;;;;;;5095382;28;20484;-71
2023/08/09 04:19:11;;;;;;;28.75;17.95;;;12.90;99.90;;;;;;5094965;28;20024;-70
2023/08/09 04:21:37;;;;;;;32.08;18.45;;;12.90;99.90;;;;;;5095707;28;20035;-70
2023/08/09 04:24:04;;;;;;;26.10;16.85;;;12.90;99.90;;;;;;5095326;28;20051;-70
2023/08/09 04:26:29;;;;;;;27.40;17.00;;;12.90;99.90;;;;;;5095489;28;20033;-70
2023/08/09 04:28:55;;;;;;;29.80;16.83;;;12.90;99.90;;;;;;5094424;28;20028;-71
2023/08/09 04:31:21;;;;;;;26.38;16.45;;;12.90;99.90;;;;;;5095370;28;20085;-70
2023/08/09 04:33:49;;;;;;;25.75;16.20;;;12.90;99.90;;;;;;5095089;28;20123;-70
2023/08/09 04:36:16;;;;;;;28.77;16.63;;;12.90;99.90;;;;;;5094968;28;20024;-70
2023/08/09 04:38:42;;;;;;;25.58;16.77;;;13.00;99.90;;;;;;5094498;28;20052;-70
2023/08/09 04:41:09;;;;;;;28.33;17.45;;;13.00;99.90;;;;;;5094811;28;20024;-70
2023/08/09 04:43:37;;;;;;;25.23;16.20;;;13.00;99.90;;;;;;5094281;28;20021;-70
2023/08/09 04:46:03;;;;;;;20.45;14.80;;;13.00;99.90;;;;;;5094853;28;20373;-73
2023/08/09 04:48:29;;;;;;;22.70;15.90;;;13.00;99.90;;;;;;5095088;28;20048;-70
2023/08/09 04:50:55;;;;;;;23.27;14.35;;;13.00;99.90;;;;;;5094550;28;20024;-70
2023/08/09 04:53:21;;;;;;;20.58;13.82;;;12.90;99.90;;;;;;5094678;28;20028;-70
2023/08/09 04:55:47;;;;;;;23.65;13.93;;;12.90;99.90;;;;;;5094359;28;20507;-70
2023/08/09 04:58:13;;;;;;;18.90;12.52;;;12.90;99.90;;;;;;5094443;28;20115;-70
2023/08/09 05:00:38;;;;;;;19.02;13.52;;;12.90;99.90;;;;;;5094259;28;20020;-70
2023/08/09 05:03:05;;;;;;;19.48;12.85;;;12.90;99.90;;;;;;5094565;28;20051;-70
2023/08/09 05:05:31;;;;;;;20.33;14.23;;;12.90;99.90;;;;;;5094413;28;20028;-70
2023/08/09 05:07:57;;;;;;;17.17;13.32;;;13.00;99.90;;;;;;5093995;28;20016;-69
2023/08/09 05:10:23;;;;;;;17.05;13.05;;;12.90;99.90;;;;;;5094483;28;20457;-69
2023/08/09 05:12:48;;;;;;;20.15;13.85;;;12.90;99.90;;;;;;5094589;28;20024;-69
2023/08/09 05:15:14;;;;;;;17.55;13.23;;;12.90;99.90;;;;;;5093830;28;20389;-69
2023/08/09 05:17:39;;;;;;;20.17;13.63;;;12.90;99.90;;;;;;5094525;28;20043;-68
2023/08/09 05:20:07;;;;;;;27.20;13.30;;;13.00;99.90;;;;;;5094166;28;20461;-68
2023/08/09 05:22:33;;;;;;;15.82;12.10;;;13.10;99.90;;;;;;5094461;28;20024;-68
2023/08/09 05:24:59;;;;;;;15.77;12.77;;;13.10;99.90;;;;;;5094309;28;20020;-68
2023/08/09 05:27:25;;;;;;;17.33;13.77;;;13.10;99.90;;;;;;5094426;28;20028;-69
2023/08/09 05:29:50;;;;;;;16.77;12.85;;;13.10;99.90;;;;;;5094173;28;20537;-70
2023/08/09 05:32:16;;;;;;;19.73;13.68;;;13.20;99.90;;;;;;5094127;28;20040;-70
2023/08/09 05:34:42;;;;;;;19.08;13.48;;;13.20;99.90;;;;;;5094697;28;20032;-70
2023/08/09 05:37:08;;;;;;;17.58;12.90;;;13.10;99.90;;;;;;5094374;28;20028;-69
2023/08/09 05:39:33;;;;;;;18.20;13.73;;;13.10;99.90;;;;;;5093494;28;20047;-68
2023/08/09 05:41:59;;;;;;;17.88;12.90;;;13.10;99.90;;;;;;5094283;28;20021;-68
2023/08/09 05:44:26;;;;;;;15.63;11.93;;;13.20;99.90;;;;;;5094105;28;20031;-68
2023/08/09 05:46:51;;;;;;;16.17;12.50;;;13.30;99.90;;;;;;5094224;28;20116;-68
2023/08/09 05:49:18;;;;;;;15.43;11.93;;;13.60;99.90;;;;;;5093729;28;20081;-69
2023/08/09 05:51:43;;;;;;;14.63;11.48;;;13.70;99.90;;;;;;5093950;28;20495;-68
2023/08/09 05:54:09;;;;;;;15.65;11.52;;;13.60;99.90;;;;;;5093678;28;20056;-68
2023/08/09 05:56:35;;;;;;;18.55;12.00;;;13.50;99.90;;;;;;5094096;28;20032;-69
2023/08/09 05:59:04;;;;;;;14.82;11.85;;;13.60;99.90;;;;;;5093781;28;20118;-70
2023/08/09 06:01:31;;;;;;;16.25;12.40;;;13.50;99.90;;;;;;5071412;28;20492;-69
2023/08/09 06:03:57;;;;;;;17.23;12.45;;;13.60;99.90;;;;;;5066357;28;20142;-69
2023/08/09 06:06:23;;;;;;;18.42;13.48;;;13.50;99.90;;;;;;5070588;28;20017;-68
2023/08/09 06:08:49;;;;;;;17.48;13.63;;;13.30;99.90;;;;;;5070994;28;20032;-74
2023/08/09 06:11:15;;;;;;;16.38;12.13;;;13.50;99.90;;;;;;5072208;28;20043;-69
2023/08/09 06:13:41;;;;;;;16.10;11.30;;;13.60;99.90;;;;;;5073733;28;20111;-69
2023/08/09 06:16:07;;;;;;;15.88;11.68;;;13.70;99.90;;;;;;5062153;28;20550;-70
2023/08/09 06:18:32;;;;;;;14.48;11.07;;;13.80;99.90;;;;;;5058027;28;20115;-69
2023/08/09 06:20:58;;;;;;;14.93;11.18;;;14.00;99.90;;;;;;5065144;28;20367;-70
2023/08/09 06:23:24;;;;;;;14.23;9.52;;;14.60;99.90;;;;;;5056988;28;20044;-69
2023/08/09 06:25:50;;;;;;;12.85;10.65;;;14.50;99.90;;;;;;5069583;28;20024;-69
2023/08/09 06:28:17;;;;;;;14.00;9.75;;;14.40;99.90;;;;;;5075564;28;20102;-69
2023/08/09 06:30:43;;;;;;;12.10;8.90;;;14.90;99.90;;;;;;5071671;28;20082;-69
2023/08/09 06:33:08;;;;;;;13.32;9.63;;;15.20;99.90;;;;;;5070960;28;20040;-69
2023/08/09 06:35:34;;;;;;;11.65;9.88;;;14.80;99.90;;;;;;5076162;28;20040;-69
2023/08/09 06:38:00;;;;;;;12.23;9.93;;;14.60;99.90;;;;;;5065418;28;20391;-69
2023/08/09 06:40:25;;;;;;;13.07;8.93;;;14.70;99.90;;;;;;5065177;28;20140;-69
2023/08/09 06:42:51;;;;;;;12.55;8.88;;;14.70;99.90;;;;;;5073742;28;20036;-69
2023/08/09 06:45:17;;;;;;;11.27;9.23;;;14.60;99.90;;;;;;5074313;28;20021;-69
2023/08/09 06:47:42;;;;;;;12.30;8.80;;;14.40;99.90;;;;;;5074819;28;20029;-69
2023/08/09 06:50:09;;;;;;;12.07;8.88;;;14.60;99.90;;;;;;5075177;28;20029;-69
2023/08/09 06:52:36;;;;;;;10.60;8.23;;;15.00;99.90;;;;;;5070920;28;20040;-70
2023/08/09 06:55:04;;;;;;;8.60;6.97;;;16.40;99.90;;;;;;5061578;28;20029;-70
2023/08/09 06:57:29;;;;;;;10.23;6.57;;;17.70;7.70;;;;;;5058293;28;20029;-70
2023/08/09 06:59:55;;;;;;;7.25;6.55;;;17.70;1.00;;;;;;5074579;28;20039;-70
2023/08/09 07:02:21;;;;;;;7.38;5.88;;;18.10;1.00;;;;;;5061763;28;20032;-70
2023/08/09 07:04:49;;;;;;;6.97;5.70;;;18.90;1.00;;;;;;5075088;28;20024;-70
2023/08/09 07:07:15;;;;;;;7.00;5.38;;;19.00;1.00;;;;;;5065212;28;20197;-69
2023/08/09 07:09:42;;;;;;;7.45;4.97;;;19.70;99.90;;;;;;5062588;28;20076;-70
2023/08/09 07:12:07;;;;;;;6.05;4.97;;;19.90;99.90;;;;;;5073989;28;20036;-70
2023/08/09 07:14:33;;;;;;;7.03;5.68;;;19.80;99.90;;;;;;5074877;28;20041;-69
2023/08/09 07:16:58;;;;;;;5.72;5.13;;;17.70;1.00;;;;;;5064579;28;20044;-69
2023/08/09 07:19:24;;;;;;;7.45;5.40;;;17.40;17.20;;;;;;5074419;28;20032;-69
2023/08/09 07:21:49;;;;;;;7.40;6.00;;;17.20;8.40;;;;;;5069965;28;20153;-69
2023/08/09 07:24:15;;;;;;;7.03;5.90;;;16.50;22.50;;;;;;5072826;28;20459;-69
2023/08/09 07:26:41;;;;;;;7.55;6.57;;;16.20;41.60;;;;;;5075176;28;20128;-69
2023/08/09 07:29:07;;;;;;;6.72;6.05;;;16.10;60.20;;;;;;5075102;28;20043;-69
2023/08/09 07:31:32;;;;;;;8.63;6.00;;;16.30;71.30;;;;;;5069460;28;20029;-70
2023/08/09 07:33:58;;;;;;;6.47;5.05;;;17.10;43.90;;;;;;5072677;28;20086;-70
2023/08/09 07:36:24;;;;;;;12.65;5.20;;;16.80;1.00;;;;;;5075219;28;20035;-69
2023/08/09 07:38:49;;;;;;;8.07;4.97;;;17.70;8.30;;;;;;5075599;28;20082;-70
2023/08/09 07:41:15;;;;;;;4.90;4.40;;;18.60;1.00;;;;;;5074545;28;20030;-70
2023/08/09 07:43:41;;;;;;;5.70;4.80;;;19.20;1.00;;;;;;5075307;28;20040;-70
2023/08/09 07:46:06;;;;;;;6.50;5.28;;;18.50;1.00;;;;;;5069303;28;20029;-69
2023/08/09 07:48:33;;;;;;;6.90;4.90;;;18.10;1.00;;;;;;5074998;28;20055;-70
2023/08/09 07:50:59;;;;;;;8.70;5.10;;;18.00;1.00;;;;;;5072537;28;20119;-70
2023/08/09 07:53:25;;;;;;;5.32;4.82;;;17.80;1.00;;;;;;5068866;28;20028;-69
2023/08/09 07:55:51;;;;;;;7.05;4.80;;;18.20;1.00;;;;;;5074103;28;20398;-69
2023/08/09 07:58:16;;;;;;;7.13;4.65;;;18.60;1.00;;;;;;5057495;28;20020;-70
2023/08/09 08:00:42;;;;;;;5.63;4.07;;;19.60;1.00;;;;;;5073187;28;20035;-69
2023/08/09 08:03:09;;;;;;;6.47;3.78;;;20.10;99.90;;;;;;5074306;28;20068;-70
2023/08/09 08:05:36;;;;;;;4.95;3.30;;;20.80;80.80;;;;;;5060630;28;20047;-71
2023/08/09 08:08:02;;;;;;;6.55;3.83;;;21.40;99.90;;;;;;5069720;28;20058;-69
2023/08/09 08:10:28;;;;;;;4.70;3.50;;;21.00;1.00;;;;;;5073628;28;20093;-70
2023/08/09 08:12:54;;;;;;;6.97;3.47;;;20.30;1.00;;;;;;5066741;28;20564;-69
2023/08/09 08:15:21;;;;;;;6.53;3.28;;;19.30;99.90;;;;;;5071740;28;20517;-70
2023/08/09 08:17:48;;;;;;;6.03;3.60;;;20.20;99.90;;;;;;5074823;28;20028;-69
2023/08/09 08:20:15;;;;;;;7.50;3.17;;;20.70;1.00;;;;;;5071191;28;20082;-69
2023/08/09 08:22:44;;;;;;;5.80;3.13;;;20.20;99.90;;;;;;5075691;28;20032;-69
2023/08/09 08:25:10;;;;;;;7.03;3.20;;;19.00;99.90;;;;;;5057905;28;20043;-69
2023/08/09 08:27:36;;;;;;;5.80;3.30;;;19.10;99.90;;;;;;5069806;28;20509;-69
2023/08/09 08:30:04;;;;;;;6.05;2.50;;;20.70;99.90;;;;;;5068611;28;20048;-70
2023/08/09 08:32:30;;;;;;;4.13;1.95;;;21.20;99.90;;;;;;5072846;28;20044;-73
2023/08/09 08:34:56;;;;;;;5.07;2.40;;;21.30;99.90;;;;;;5074363;28;20063;-69
2023/08/09 08:37:23;;;;;;;4.82;2.50;;;21.30;99.90;;;;;;5072342;28;20024;-70
2023/08/09 08:39:50;;;;;;;2.72;1.95;;;21.00;99.90;;;;;;5071169;28;20147;-70
2023/08/09 08:42:17;;;;;;;2.78;2.33;;;21.40;1.00;;;;;;5061657;28;20439;-69
2023/08/09 08:44:44;;;;;;;5.65;2.42;;;22.50;1.00;;;;;;5059196;28;20081;-69
2023/08/09 08:47:10;;;;;;;4.85;2.22;;;23.10;1.00;;;;;;5072918;28;20496;-69
2023/08/09 08:49:43;;;;;;;2.38;2.15;;;22.70;99.90;;;;;;5070588;28;20024;-68
2023/08/09 08:52:09;;;;;;;4.72;2.50;;;22.40;69.60;;;;;;5054692;28;20029;-68
2023/08/09 08:54:36;;;;;;;6.63;3.70;;;21.60;99.90;;;;;;5067683;28;20397;-68
2023/08/09 08:57:02;;;;;;;5.65;3.90;;;21.40;1.00;;;;;;5071867;28;21997;-69
2023/08/09 08:59:29;;;;;;;8.07;4.97;;;21.60;99.90;;;;;;5072639;28;20128;-69
2023/08/09 09:01:55;;;;;;;7.00;5.00;;;21.50;1.00;;;;;;5070864;28;20039;-69
2023/08/09 09:04:20;;;;;;;5.70;3.47;;;22.20;49.50;;;;;;5067534;28;20459;-69
2023/08/09 09:06:47;;;;;;;4.55;2.92;;;22.60;99.90;;;;;;5072379;28;20382;-70
2023/08/09 09:09:13;;;;;;;5.15;4.10;;;23.30;1.00;;;;;;5071649;28;20024;-70
2023/08/09 09:11:40;;;;;;;5.22;3.17;;;23.40;1.00;;;;;;5071817;28;20071;-70
2023/08/09 09:14:11;;;;;;;8.90;5.75;;;23.20;1.00;;;;;;5067772;28;20050;-71
2023/08/09 09:16:36;;;;;;;5.18;4.22;;;22.10;1.00;;;;;;5075863;28;20024;-70
2023/08/09 09:19:02;;;;;;;5.97;2.67;;;22.50;38.50;;;;;;5068782;28;20390;-69
2023/08/09 09:21:31;;;;;;;5.80;3.72;;;23.10;1.00;;;;;;5070428;28;20068;-70
2023/08/09 09:24:01;;;;;;;6.97;4.78;;;23.50;99.90;;;;;;5061725;28;20535;-75
2023/08/09 09:26:28;;;;;;;5.60;4.93;;;23.60;1.00;;;;;;5071869;28;20397;-69
2023/08/09 09:28:53;;;;;;;7.47;5.13;;;22.90;99.90;;;;;;5071834;28;20486;-69
2023/08/09 09:31:19;;;;;;;4.90;3.25;;;22.20;99.90;;;;;;5074286;28;20032;-69
2023/08/09 09:33:49;;;;;;;5.18;2.65;;;22.00;99.90;;;;;;5065413;28;20025;-69
2023/08/09 09:36:17;;;;;;;6.47;2.35;;;22.10;99.90;;;;;;5071309;28;20025;-69
2023/08/09 09:38:44;;;;;;;4.38;2.42;;;22.70;99.90;;;;;;5071618;28;20048;-69
2023/08/09 09:41:10;;;;;;;4.53;2.58;;;23.50;21.30;;;;;;5060020;28;20025;-69
2023/08/09 09:43:39;;;;;;;4.13;3.80;;;23.60;1.00;;;;;;5066434;28;20027;-69
2023/08/09 09:46:17;;;;;;;6.70;3.60;;;23.60;99.90;;;;;;5063464;28;20029;-71
2023/08/09 09:48:47;;;;;;;5.75;3.70;;;23.60;1.00;;;;;;5062718;28;20074;-69
2023/08/09 09:51:16;;;;;;;5.03;4.35;;;24.00;99.90;;;;;;5067462;28;20028;-70
2023/08/09 09:53:43;;;;;;;5.68;3.17;;;24.10;21.70;;;;;;5068697;28;20029;-70
2023/08/09 09:56:09;;;;;;;4.65;1.80;;;22.90;1.00;;;;;;5072918;28;20158;-69
2023/08/09 09:58:35;;;;;;;8.13;1.83;;;22.30;1.00;;;;;;5071122;28;20052;-69
2023/08/09 10:01:06;;;;;;;2.95;2.75;;;23.50;99.90;;;;;;5070585;28;20024;-70
2023/08/09 10:03:38;;;;;;;5.45;3.30;;;23.90;1.00;;;;;;5068983;28;20086;-70
2023/08/09 10:06:08;;;;;;;2.47;2.17;;;23.80;99.90;;;;;;5076450;28;20028;-69
2023/08/09 10:08:36;;;;;;;4.53;1.98;;;22.90;99.90;;;;;;5072035;28;20041;-70
2023/08/09 10:11:03;;;;;;;2.08;1.70;;;23.30;99.90;;;;;;5070143;28;20358;-70
2023/08/09 10:13:31;;;;;;;3.55;1.70;;;23.60;99.90;;;;;;5076721;28;20071;-70
2023/08/09 10:16:02;;;;;;;4.22;1.80;;;24.10;99.90;;;;;;5069350;28;20029;-70
2023/08/09 10:18:33;;;;;;;5.00;1.90;;;24.90;1.00;;;;;;5060544;28;20773;-71
2023/08/09 10:21:01;;;;;;;6.20;2.22;;;23.70;49.90;;;;;;5076423;28;20032;-70
2023/08/09 10:23:28;;;;;;;3.03;2.38;;;22.90;1.00;;;;;;5076110;28;20020;-69
2023/08/09 10:25:55;;;;;;;3.20;2.25;;;22.60;1.00;;;;;;5069913;28;20031;-72
2023/08/09 10:28:45;;;;;;;2.17;1.50;;;22.10;99.90;;;;;;5075056;28;20055;-70
2023/08/09 10:31:14;;;;;;;2.08;1.63;;;21.60;99.90;;;;;;5070524;28;20503;-71
2023/08/09 10:34:10;;;;;;;2.60;1.67;;;21.40;1.00;;;;;;5078403;28;20028;-69
2023/08/09 10:36:35;;;;;;;3.20;1.98;;;21.20;24.90;;;;;;5071715;28;20498;-70
2023/08/09 10:39:18;;;;;;;1.98;1.80;;;21.40;1.00;;;;;;5079258;28;20124;-70
2023/08/09 10:42:03;;;;;;;3.97;1.73;;;21.30;99.90;;;;;;5071500;28;20374;-70
2023/08/09 10:44:48;;;;;;;2.83;1.50;;;21.80;1.00;;;;;;5067457;28;21810;-70
2023/08/09 10:47:20;;;;;;;2.63;1.85;;;22.80;1.00;;;;;;5065117;28;20032;-70
2023/08/09 10:52:48;;;;;;;2.65;1.92;;;23.40;99.90;;;;;;5052737;28;20400;-69
2023/08/09 10:55:26;;;;;;;4.28;1.85;;;22.20;99.90;;;;;;5037399;28;20045;-69
2023/08/09 10:57:53;;;;;;;3.55;1.75;;;21.70;99.90;;;;;;5041713;28;20026;-69
2023/08/09 11:00:21;;;;;;;5.38;2.05;;;21.40;1.60;;;;;;5047151;28;20028;-69
2023/08/09 11:02:50;;;;;;;5.05;2.30;;;21.60;52.90;;;;;;5050382;28;20510;-69
2023/08/09 11:05:17;;;;;;;4.95;2.20;;;21.70;1.00;;;;;;5048187;28;20490;-69
2023/08/09 11:07:45;;;;;;;2.97;2.13;;;21.50;1.00;;;;;;5032979;28;20120;-69
2023/08/09 11:10:12;;;;;;;5.32;2.35;;;21.20;1.00;;;;;;5038083;28;20030;-69
2023/08/09 11:12:41;;;;;;;4.95;2.65;;;21.00;1.00;;;;;;5039487;28;20120;-69
2023/08/09 11:15:07;;;;;;;4.60;2.40;;;21.10;99.90;;;;;;5040055;28;20071;-69
2023/08/09 11:17:33;;;;;;;4.22;2.70;;;21.10;1.00;;;;;;5042544;28;20033;-70
2023/08/09 11:19:59;;;;;;;5.50;2.47;;;20.70;99.90;;;;;;5046450;28;20560;-70
2023/08/09 11:22:24;;;;;;;5.00;2.50;;;20.50;8.80;;;;;;5042781;28;20553;-69
2023/08/09 11:24:50;;;;;;;4.32;2.40;;;20.70;15.10;;;;;;5048493;28;20029;-69
2023/08/09 11:27:15;;;;;;;5.00;3.25;;;21.10;1.00;;;;;;5048815;28;20406;-69
2023/08/09 11:29:41;;;;;;;5.15;3.00;;;20.70;99.90;;;;;;5038079;28;20057;-69
2023/08/09 11:32:07;;;;;;;3.28;2.80;;;20.70;99.90;;;;;;5042460;28;20078;-70
2023/08/09 11:34:33;;;;;;;7.93;4.30;;;20.80;1.00;;;;;;5046603;28;20021;-69
2023/08/09 11:36:59;;;;;;;7.85;4.00;;;21.20;99.90;;;;;;5037876;28;20045;-69
2023/08/09 11:39:26;;;;;;;4.53;3.08;;;20.70;99.90;;;;;;5045037;28;20395;-69
2023/08/09 11:44:33;;;;;;;7.18;2.95;;;20.70;99.90;;;;;;5106614;27;20839;-68
2023/08/09 11:47:01;;;;;;;4.25;3.28;;;21.10;99.90;;;;;;5088590;28;20016;-69
2023/08/09 11:49:28;;;;;;;6.80;3.00;;;21.10;99.90;;;;;;5098460;28;20020;-69
2023/08/09 11:51:55;;;;;;;5.82;2.40;;;21.00;32.60;;;;;;5082184;28;20051;-69
2023/08/09 11:54:21;;;;;;;3.15;2.15;;;21.10;19.10;;;;;;5090055;28;20135;-69
2023/08/09 11:56:48;;;;;;;3.67;2.75;;;21.70;99.90;;;;;;5087974;28;20119;-69
2023/08/09 11:59:17;;;;;;;6.88;3.92;;;21.80;99.90;;;;;;5085088;28;20555;-69
2023/08/09 12:01:45;;;;;;;4.18;3.20;;;21.50;20.40;;;;;;5081420;28;20024;-69
2023/08/09 12:04:14;;;;;;;5.07;2.83;;;21.60;99.90;;;;;;5093304;28;20039;-69
2023/08/09 12:06:43;;;;;;;3.90;2.50;;;22.30;1.00;;;;;;5093333;28;20051;-71
2023/08/09 12:09:40;;;;;;;2.97;2.65;;;21.80;99.90;;;;;;5075152;28;20027;-69
2023/08/09 12:12:10;;;;;;;7.90;2.40;;;21.40;99.90;;;;;;5073149;28;20032;-68
2023/08/09 12:14:41;;;;;;;3.78;2.28;;;21.80;99.90;;;;;;5080924;28;20527;-68
2023/08/09 12:17:08;;;;;;;4.28;2.17;;;21.20;23.90;;;;;;5070018;28;20025;-68
2023/08/09 12:19:34;;;;;;;3.35;2.70;;;21.50;1.00;;;;;;5079550;28;20029;-67
2023/08/09 12:22:01;;;;;;;3.05;2.70;;;21.30;1.00;;;;;;5080252;28;20048;-68
2023/08/09 12:24:27;;;;;;;4.22;2.67;;;21.30;99.90;;;;;;5089533;28;20032;-68
2023/08/09 12:26:54;;;;;;;3.08;2.42;;;22.10;1.00;;;;;;5091275;28;20021;-68
2023/08/09 12:29:19;;;;;;;3.78;3.00;;;21.70;8.60;;;;;;5075087;28;20069;-68
2023/08/09 12:31:45;;;;;;;4.47;2.88;;;21.80;1.00;;;;;;5095834;28;20024;-68
2023/08/09 12:34:11;;;;;;;3.92;3.10;;;21.30;99.90;;;;;;5086147;28;20029;-68
2023/08/09 12:36:38;;;;;;;4.00;2.40;;;21.30;99.90;;;;;;5092627;28;20027;-69
2023/08/09 12:39:04;;;;;;;4.18;2.72;;;21.60;1.00;;;;;;5097428;28;20123;-69
2023/08/09 12:41:30;;;;;;;2.92;2.05;;;21.60;1.00;;;;;;5078386;28;20033;-70
2023/08/09 12:43:56;;;;;;;2.55;2.00;;;21.80;1.00;;;;;;5070469;28;20036;-69
2023/08/09 12:46:21;;;;;;;2.42;2.10;;;21.50;99.90;;;;;;5090010;28;20036;-69
2023/08/09 12:48:47;;;;;;;3.13;2.40;;;21.80;1.00;;;;;;5099037;28;20020;-69
2023/08/09 12:51:13;;;;;;;1.92;1.73;;;21.40;92.60;;;;;;5081908;28;20024;-69